createdAt,value
2024-05-09T00:00:36.387Z,19.40
2024-05-09T00:03:11.791Z,19.50
2024-05-09T00:05:44.695Z,19.40
2024-05-09T00:08:16.675Z,19.20
2024-05-09T00:10:50.441Z,19.40
2024-05-09T00:13:21.255Z,19.20
2024-05-09T00:15:52.299Z,19.10
2024-05-09T00:18:23.527Z,19.20
2024-05-09T00:20:54.540Z,19.30
2024-05-09T00:23:25.804Z,19.20
2024-05-09T00:25:59.431Z,19.20
2024-05-09T00:28:30.308Z,18.90
2024-05-09T00:31:01.184Z,18.80
2024-05-09T00:33:32.266Z,19.00
2024-05-09T00:36:03.462Z,19.20
2024-05-09T00:38:36.340Z,19.10
2024-05-09T00:41:10.118Z,19.10
2024-05-09T00:43:41.049Z,18.90
2024-05-09T00:46:12.939Z,19.20
2024-05-09T00:48:44.487Z,19.10
2024-05-09T00:51:15.503Z,19.20
2024-05-09T00:53:46.447Z,19.30
2024-05-09T00:56:22.557Z,19.10
2024-05-09T00:58:54.366Z,19.10
2024-05-09T01:01:28.074Z,19.20
2024-05-09T01:04:49.876Z,19.10
2024-05-09T01:07:21.590Z,18.80
2024-05-09T01:09:52.314Z,18.80
2024-05-09T01:12:25.894Z,18.90
2024-05-09T01:14:56.686Z,18.70
2024-05-09T01:17:28.647Z,18.70
2024-05-09T01:19:59.408Z,19.00
2024-05-09T01:22:31.716Z,19.10
2024-05-09T01:25:05.981Z,18.90
2024-05-09T01:27:37.124Z,18.90
2024-05-09T01:30:12.025Z,18.90
2024-05-09T01:32:45.969Z,19.20
2024-05-09T01:35:17.423Z,18.90
2024-05-09T01:37:48.762Z,19.10
2024-05-09T01:40:29.114Z,19.10
2024-05-09T01:43:08.579Z,18.80
2024-05-09T01:45:41.302Z,18.90
2024-05-09T01:48:13.196Z,18.60
2024-05-09T01:50:44.283Z,18.60
2024-05-09T01:53:16.780Z,18.70
2024-05-09T01:55:50.279Z,18.80
2024-05-09T01:58:21.163Z,18.40
2024-05-09T02:00:52.006Z,18.30
2024-05-09T02:03:23.301Z,18.30
2024-05-09T02:05:54.183Z,18.40
2024-05-09T02:08:25.446Z,18.40
2024-05-09T02:10:59.068Z,18.40
2024-05-09T02:13:30.105Z,18.50
2024-05-09T02:16:01.101Z,18.30
2024-05-09T02:18:32.314Z,18.80
2024-05-09T02:21:03.473Z,18.40
2024-05-09T02:23:34.500Z,18.60
2024-05-09T02:26:08.561Z,18.40
2024-05-09T02:28:39.481Z,18.30
2024-05-09T02:31:10.562Z,18.40
2024-05-09T02:33:41.743Z,18.60
2024-05-09T02:36:12.852Z,18.60
2024-05-09T02:38:41.011Z,18.60
2024-05-09T02:41:14.912Z,18.70
2024-05-09T02:43:43.616Z,18.60
2024-05-09T02:46:14.530Z,18.40
2024-05-09T02:48:43.612Z,18.30
2024-05-09T02:51:14.584Z,18.30
2024-05-09T02:53:42.839Z,18.50
2024-05-09T02:56:16.563Z,18.30
2024-05-09T02:58:44.739Z,18.20
2024-05-09T03:01:15.508Z,18.30
2024-05-09T03:03:45.594Z,18.50
2024-05-09T03:06:16.490Z,18.40
2024-05-09T03:08:48.081Z,18.00
2024-05-09T03:11:28.351Z,18.00
2024-05-09T03:13:57.090Z,18.20
2024-05-09T03:16:27.860Z,18.20
2024-05-09T03:18:56.364Z,18.00
2024-05-09T03:21:27.350Z,18.10
2024-05-09T03:23:55.506Z,18.10
2024-05-09T03:26:29.381Z,18.20
2024-05-09T03:28:58.164Z,18.00
2024-05-09T03:31:29.115Z,18.10
2024-05-09T03:33:57.351Z,18.40
2024-05-09T03:36:28.338Z,18.00
2024-05-09T03:38:59.332Z,17.70
2024-05-09T03:41:35.080Z,17.50
2024-05-09T03:44:06.547Z,17.70
2024-05-09T03:46:38.463Z,17.70
2024-05-09T03:49:09.821Z,17.50
2024-05-09T03:51:37.976Z,17.60
2024-05-09T03:54:08.774Z,17.70
2024-05-09T03:56:39.802Z,17.70
2024-05-09T03:59:11.696Z,17.70
2024-05-09T04:01:40.153Z,17.80
2024-05-09T04:04:12.584Z,18.10
2024-05-09T04:06:40.958Z,17.90
2024-05-09T04:09:11.992Z,17.50
2024-05-09T04:11:42.892Z,17.60
2024-05-09T04:14:14.062Z,17.50
2024-05-09T04:16:42.325Z,17.50
2024-05-09T04:19:13.305Z,17.50
2024-05-09T04:21:41.754Z,17.50
2024-05-09T04:24:12.543Z,17.80
2024-05-09T04:26:43.498Z,17.70
2024-05-09T04:29:14.597Z,17.70
2024-05-09T04:31:42.697Z,17.70
2024-05-09T04:34:13.507Z,17.50
2024-05-09T04:36:44.392Z,17.20
2024-05-09T04:39:15.406Z,17.20
2024-05-09T04:41:46.395Z,17.20
2024-05-09T04:44:17.254Z,17.20
2024-05-09T04:46:47.509Z,17.30
2024-05-09T04:49:18.608Z,17.20
2024-05-09T04:51:47.225Z,17.10
2024-05-09T04:54:29.884Z,17.00
2024-05-09T04:57:07.303Z,17.10
2024-05-09T04:59:38.825Z,17.30
2024-05-09T05:02:07.083Z,17.60
2024-05-09T05:04:37.834Z,17.40
2024-05-09T05:07:06.028Z,17.40
2024-05-09T05:09:36.748Z,17.30
2024-05-09T05:12:28.648Z,17.40
2024-05-09T05:14:59.871Z,17.50
2024-05-09T05:17:28.186Z,17.40
2024-05-09T05:19:59.136Z,17.50
2024-05-09T05:22:28.732Z,17.30
2024-05-09T05:24:59.710Z,17.30
2024-05-09T05:27:31.286Z,17.30
2024-05-09T05:30:02.345Z,17.40
2024-05-09T05:32:31.122Z,17.40
2024-05-09T05:35:02.305Z,17.40
2024-05-09T05:37:30.971Z,17.30
2024-05-09T05:40:01.920Z,17.20
2024-05-09T05:42:32.912Z,17.40
2024-05-09T05:45:06.108Z,17.50
2024-05-09T05:50:20.438Z,17.30
2024-05-09T05:52:55.434Z,17.30
2024-05-09T05:55:26.535Z,17.70
2024-05-09T05:57:57.735Z,17.70
2024-05-09T06:00:34.990Z,17.50
2024-05-09T06:03:07.232Z,17.70
2024-05-09T06:05:40.639Z,17.60
2024-05-09T06:08:09.552Z,17.70
2024-05-09T06:10:41.561Z,17.80
2024-05-09T06:13:14.385Z,18.10
2024-05-09T06:15:45.876Z,18.00
2024-05-09T06:18:15.171Z,17.90
2024-05-09T06:20:46.397Z,18.00
2024-05-09T06:23:14.872Z,18.10
2024-05-09T06:25:45.766Z,18.40
2024-05-09T06:28:16.550Z,18.60
2024-05-09T06:30:47.407Z,18.70
2024-05-09T06:33:16.728Z,18.80
2024-05-09T06:35:49.053Z,18.80
2024-05-09T06:38:17.514Z,18.50
2024-05-09T06:40:48.728Z,18.80
2024-05-09T06:43:20.155Z,19.00
2024-05-09T06:45:53.125Z,19.00
2024-05-09T06:48:22.570Z,19.00
2024-05-09T06:50:54.347Z,18.90
2024-05-09T06:53:24.189Z,18.90
2024-05-09T06:55:55.272Z,19.00
2024-05-09T06:58:26.217Z,19.20
2024-05-09T07:00:56.954Z,19.20
2024-05-09T07:03:25.343Z,19.20
2024-05-09T07:05:56.360Z,19.30
2024-05-09T07:08:24.597Z,19.40
2024-05-09T07:10:55.820Z,19.50
2024-05-09T07:13:26.730Z,19.60
2024-05-09T07:15:58.360Z,19.60
2024-05-09T07:18:26.716Z,19.50
2024-05-09T07:20:57.721Z,19.60
2024-05-09T07:23:25.910Z,19.80
2024-05-09T07:25:58.077Z,19.80
2024-05-09T07:28:28.867Z,19.80
2024-05-09T07:30:59.791Z,19.90
2024-05-09T07:33:28.580Z,20.20
2024-05-09T07:36:00.369Z,20.30
2024-05-09T07:38:28.694Z,20.40
2024-05-09T07:40:59.697Z,20.30
2024-05-09T07:43:30.808Z,20.40
2024-05-09T07:46:51.614Z,20.50
2024-05-09T07:53:57.331Z,20.70
2024-05-09T07:56:31.750Z,20.80
2024-05-09T07:59:03.476Z,20.90
2024-05-09T08:01:34.692Z,21.10
2024-05-09T08:04:03.437Z,21.10
2024-05-09T08:06:34.658Z,21.20
2024-05-09T08:09:07.769Z,21.40
2024-05-09T08:11:41.636Z,21.40
2024-05-09T08:14:12.847Z,21.50
2024-05-09T08:16:43.608Z,21.50
2024-05-09T08:19:12.094Z,21.60
2024-05-09T08:21:42.925Z,21.70
2024-05-09T08:24:11.246Z,21.70
2024-05-09T08:26:42.440Z,21.70
2024-05-09T08:29:13.724Z,21.80
2024-05-09T08:31:44.797Z,21.90
2024-05-09T08:34:14.285Z,22.00
2024-05-09T08:36:45.426Z,21.90
2024-05-09T08:39:13.760Z,21.70
2024-05-09T08:41:46.431Z,21.90
2024-05-09T08:44:18.602Z,21.90
2024-05-09T08:46:54.151Z,22.20
2024-05-09T08:49:23.222Z,22.30
2024-05-09T08:51:54.112Z,22.40
2024-05-09T08:54:23.094Z,22.50
2024-05-09T08:56:55.247Z,22.40
2024-05-09T08:59:32.746Z,22.10
2024-05-09T09:02:04.570Z,22.30
2024-05-09T09:04:38.103Z,22.50
2024-05-09T09:07:10.019Z,22.70
2024-05-09T09:09:43.749Z,22.70
2024-05-09T09:12:16.224Z,22.60
2024-05-09T09:14:47.177Z,22.60
2024-05-09T09:17:18.926Z,22.60
2024-05-09T09:19:47.139Z,22.70
2024-05-09T09:22:19.915Z,22.30
2024-05-09T09:24:48.159Z,22.30
2024-05-09T09:27:19.192Z,22.50
2024-05-09T09:29:50.028Z,22.50
2024-05-09T09:32:20.914Z,22.50
2024-05-09T09:34:49.452Z,22.60
2024-05-09T09:37:26.535Z,22.80
2024-05-09T09:39:55.484Z,22.90
2024-05-09T09:42:27.613Z,22.90
2024-05-09T09:45:04.682Z,22.90
2024-05-09T09:47:41.076Z,22.80
2024-05-09T09:50:14.439Z,22.70
2024-05-09T09:52:48.967Z,22.90
2024-05-09T09:55:18.439Z,23.20
2024-05-09T09:57:51.654Z,23.20
2024-05-09T10:00:30.606Z,23.30
2024-05-09T10:03:04.627Z,23.30
2024-05-09T10:05:34.465Z,23.40
2024-05-09T10:08:08.939Z,23.30
2024-05-09T10:10:37.484Z,23.10
2024-05-09T10:13:09.505Z,23.10
2024-05-09T10:15:52.984Z,23.50
2024-05-09T10:18:28.493Z,23.30
2024-05-09T10:20:59.822Z,23.40
2024-05-09T10:23:32.718Z,23.40
2024-05-09T10:26:02.496Z,23.30
2024-05-09T10:28:35.548Z,23.30
2024-05-09T10:31:08.800Z,23.00
2024-05-09T10:33:43.464Z,22.90
2024-05-09T10:36:13.005Z,23.20
2024-05-09T10:38:45.020Z,23.60
2024-05-09T10:41:13.236Z,23.80
2024-05-09T10:43:44.602Z,23.70
2024-05-09T10:46:15.594Z,23.80
2024-05-09T10:48:48.269Z,23.60
2024-05-09T10:51:19.369Z,23.80
2024-05-09T10:53:52.767Z,24.00
2024-05-09T10:56:20.875Z,24.00
2024-05-09T10:58:55.026Z,24.10
2024-05-09T11:01:28.253Z,24.10
2024-05-09T11:04:00.540Z,24.30
2024-05-09T11:06:30.313Z,24.40
2024-05-09T11:09:01.485Z,24.30
2024-05-09T11:11:29.972Z,24.30
2024-05-09T11:14:00.918Z,24.50
2024-05-09T11:16:31.942Z,24.50
2024-05-09T11:19:03.220Z,24.40
2024-05-09T11:21:31.578Z,24.50
2024-05-09T11:24:02.562Z,24.40
2024-05-09T11:26:32.813Z,24.40
2024-05-09T11:29:03.838Z,24.50
2024-05-09T11:31:45.053Z,24.20
2024-05-09T11:34:16.184Z,24.00
2024-05-09T11:36:44.775Z,24.10
2024-05-09T11:39:16.314Z,24.20
2024-05-09T11:41:44.406Z,24.30
2024-05-09T11:44:15.514Z,24.20
2024-05-09T11:46:46.860Z,24.20
2024-05-09T11:49:18.420Z,24.10
2024-05-09T11:51:47.313Z,23.90
2024-05-09T11:54:19.295Z,24.10
2024-05-09T11:56:47.531Z,24.30
2024-05-09T11:59:18.736Z,24.00
2024-05-09T12:01:49.767Z,24.70
2024-05-09T12:04:20.956Z,24.70
2024-05-09T12:06:49.253Z,24.30
2024-05-09T12:09:20.127Z,24.40
2024-05-09T12:11:48.498Z,24.40
2024-05-09T12:14:19.583Z,24.40
2024-05-09T12:16:50.450Z,24.30
2024-05-09T12:19:21.537Z,24.30
2024-05-09T12:21:49.946Z,24.40
2024-05-09T12:24:20.717Z,24.40
2024-05-09T12:26:49.058Z,24.30
2024-05-09T12:29:20.009Z,24.30
2024-05-09T12:31:51.103Z,24.40
2024-05-09T12:34:21.970Z,24.40
2024-05-09T12:36:50.420Z,24.30
2024-05-09T12:39:21.420Z,24.00
2024-05-09T12:41:49.573Z,23.90
2024-05-09T12:44:20.537Z,24.20
2024-05-09T12:46:51.606Z,24.20
2024-05-09T12:49:24.623Z,24.50
2024-05-09T12:51:52.910Z,24.30
2024-05-09T12:54:23.800Z,24.30
2024-05-09T12:56:52.034Z,24.30
2024-05-09T12:59:22.877Z,24.50
2024-05-09T13:01:57.229Z,24.40
2024-05-09T13:04:29.033Z,24.40
2024-05-09T13:06:57.563Z,24.30
2024-05-09T13:09:28.415Z,24.10
2024-05-09T13:11:57.344Z,24.40
2024-05-09T13:14:28.136Z,24.40
2024-05-09T13:16:59.246Z,24.50
2024-05-09T13:19:30.316Z,24.60
2024-05-09T13:21:58.717Z,24.60
2024-05-09T13:24:29.572Z,24.70
2024-05-09T13:26:57.844Z,24.60
2024-05-09T13:29:29.018Z,24.90
2024-05-09T13:32:00.086Z,24.60
2024-05-09T13:34:31.138Z,24.70
2024-05-09T13:36:59.976Z,25.00
2024-05-09T13:39:31.126Z,25.10
2024-05-09T13:41:59.243Z,25.10
2024-05-09T13:44:30.116Z,25.70
2024-05-09T13:47:01.285Z,25.80
2024-05-09T13:49:32.463Z,25.70
2024-05-09T13:52:00.791Z,26.30
2024-05-09T13:54:32.603Z,26.10
2024-05-09T13:57:00.951Z,25.80
2024-05-09T13:59:32.509Z,26.10
2024-05-09T14:02:03.847Z,26.50
2024-05-09T14:04:34.890Z,26.40
2024-05-09T14:07:03.499Z,26.10
2024-05-09T14:09:34.401Z,26.20
2024-05-09T14:12:03.066Z,25.90
2024-05-09T14:14:33.833Z,26.60
2024-05-09T14:17:04.845Z,26.70
2024-05-09T14:19:35.880Z,26.70
2024-05-09T14:22:06.568Z,26.80
2024-05-09T14:24:37.865Z,26.70
2024-05-09T14:27:06.420Z,26.30
2024-05-09T14:29:37.546Z,26.70
2024-05-09T14:32:08.786Z,26.40
2024-05-09T14:34:39.842Z,26.00
2024-05-09T14:37:08.735Z,26.20
2024-05-09T14:39:39.715Z,26.50
2024-05-09T14:42:08.396Z,26.60
2024-05-09T14:44:39.221Z,26.60
2024-05-09T14:47:11.080Z,26.60
2024-05-09T14:49:42.196Z,27.00
2024-05-09T14:52:10.743Z,26.70
2024-05-09T14:54:41.979Z,27.00
2024-05-09T14:57:10.526Z,26.50
2024-05-09T14:59:41.473Z,26.20
2024-05-09T15:02:12.691Z,26.10
2024-05-09T15:04:43.778Z,25.30
2024-05-09T15:07:12.575Z,24.90
2024-05-09T15:09:43.560Z,24.60
2024-05-09T15:12:11.736Z,23.90
2024-05-09T15:14:42.753Z,23.10
2024-05-09T15:17:13.583Z,23.30
2024-05-09T15:19:45.251Z,23.40
2024-05-09T15:22:16.595Z,23.30
2024-05-09T15:24:48.745Z,23.00
2024-05-09T15:27:17.517Z,23.00
2024-05-09T15:29:48.417Z,22.90
2024-05-09T15:32:19.358Z,23.00
2024-05-09T15:34:50.500Z,22.80
2024-05-09T15:37:18.913Z,22.80
2024-05-09T15:39:50.167Z,22.80
2024-05-09T15:42:18.335Z,22.90
2024-05-09T15:44:53.097Z,22.90
2024-05-09T15:47:24.422Z,23.00
2024-05-09T15:49:55.340Z,23.00
2024-05-09T15:52:23.835Z,23.00
2024-05-09T15:54:54.690Z,22.80
2024-05-09T15:57:23.037Z,22.80
2024-05-09T15:59:54.624Z,22.80
2024-05-09T16:02:25.962Z,23.00
2024-05-09T16:04:57.372Z,22.80
2024-05-09T16:07:25.883Z,22.80
2024-05-09T16:09:56.748Z,22.90
2024-05-09T16:12:25.291Z,22.80
2024-05-09T16:14:56.321Z,22.60
2024-05-09T16:17:27.540Z,22.70
2024-05-09T16:19:58.903Z,22.40
2024-05-09T16:22:27.059Z,22.60
2024-05-09T16:24:58.051Z,22.70
2024-05-09T16:27:30.180Z,22.40
2024-05-09T16:30:04.180Z,22.50
2024-05-09T16:32:41.706Z,22.50
2024-05-09T16:35:10.302Z,22.40
2024-05-09T16:37:41.285Z,22.40
2024-05-09T16:40:21.725Z,22.30
2024-05-09T16:43:00.625Z,22.30
2024-05-09T16:45:29.601Z,22.30
2024-05-09T16:48:04.967Z,22.10
2024-05-09T16:50:35.279Z,22.20
2024-05-09T16:53:07.710Z,22.20
2024-05-09T16:55:36.848Z,22.20
2024-05-09T16:58:08.720Z,22.20
2024-05-09T17:00:41.972Z,22.20
2024-05-09T17:03:17.548Z,22.10
2024-05-09T17:05:47.419Z,22.10
2024-05-09T17:08:20.122Z,22.10
2024-05-09T17:10:49.647Z,22.10
2024-05-09T17:13:23.017Z,22.00
2024-05-09T17:15:54.472Z,22.00
2024-05-09T17:18:29.312Z,22.00
2024-05-09T17:20:57.672Z,22.10
2024-05-09T17:23:29.247Z,22.20
2024-05-09T17:25:58.336Z,22.10
2024-05-09T17:28:29.612Z,22.00
2024-05-09T17:30:58.386Z,22.10
2024-05-09T17:33:32.999Z,22.00
2024-05-09T17:36:01.439Z,22.00
2024-05-09T17:38:32.891Z,21.80
2024-05-09T17:41:01.639Z,21.80
2024-05-09T17:43:32.678Z,21.60
2024-05-09T17:46:01.263Z,21.70
2024-05-09T17:48:36.133Z,21.80
2024-05-09T17:51:05.278Z,21.80
2024-05-09T17:53:36.590Z,21.70
2024-05-09T17:56:05.732Z,21.50
2024-05-09T17:58:36.883Z,21.40
2024-05-09T18:01:05.584Z,21.60
2024-05-09T18:03:39.886Z,21.50
2024-05-09T18:06:08.491Z,21.50
2024-05-09T18:08:39.501Z,21.50
2024-05-09T18:11:09.993Z,21.50
2024-05-09T18:13:41.200Z,21.60
2024-05-09T18:16:09.705Z,21.70
2024-05-09T18:18:43.587Z,21.40
2024-05-09T18:21:11.968Z,21.40
2024-05-09T18:23:42.901Z,21.40
2024-05-09T18:26:11.397Z,21.30
2024-05-09T18:28:42.467Z,21.20
2024-05-09T18:31:10.873Z,21.10
2024-05-09T18:33:44.820Z,21.10
2024-05-09T18:36:13.323Z,21.10
2024-05-09T18:38:44.469Z,21.00
2024-05-09T18:41:12.923Z,21.10
2024-05-09T18:43:45.499Z,21.00
2024-05-09T18:46:17.393Z,20.90
2024-05-09T18:48:51.189Z,20.80
2024-05-09T18:51:20.082Z,20.80
2024-05-09T18:53:52.640Z,20.80
2024-05-09T18:56:20.901Z,20.70
2024-05-09T18:58:51.755Z,20.70
2024-05-09T19:01:19.898Z,20.60
2024-05-09T19:03:53.844Z,20.60
2024-05-09T19:06:24.622Z,20.60
2024-05-09T19:08:55.937Z,20.60
2024-05-09T19:11:24.139Z,20.50
2024-05-09T19:13:54.939Z,20.40
2024-05-09T19:16:23.539Z,20.40
2024-05-09T19:18:57.209Z,20.40
2024-05-09T19:21:25.484Z,20.30
2024-05-09T19:23:56.409Z,20.20
2024-05-09T19:26:25.295Z,20.20
2024-05-09T19:28:56.163Z,20.10
2024-05-09T19:31:24.647Z,20.10
2024-05-09T19:33:58.325Z,20.20
2024-05-09T19:36:26.938Z,20.00
2024-05-09T19:38:57.805Z,20.00
2024-05-09T19:41:25.886Z,20.10
2024-05-09T19:43:56.750Z,20.00
2024-05-09T19:46:25.265Z,20.00
2024-05-09T19:48:59.056Z,20.00
2024-05-09T19:51:27.598Z,19.90
2024-05-09T19:53:58.513Z,19.90
2024-05-09T19:56:26.793Z,19.90
2024-05-09T19:58:57.843Z,19.90
2024-05-09T20:01:26.180Z,19.80
2024-05-09T20:04:00.067Z,20.00
2024-05-09T20:06:30.532Z,19.90
2024-05-09T20:09:01.520Z,19.90
2024-05-09T20:11:33.019Z,19.80
2024-05-09T20:14:04.121Z,19.70
2024-05-09T20:16:32.482Z,19.60
2024-05-09T20:19:06.143Z,19.60
2024-05-09T20:21:34.718Z,19.60
2024-05-09T20:24:06.145Z,19.60
2024-05-09T20:26:34.728Z,19.40
2024-05-09T20:29:05.752Z,19.60
2024-05-09T20:31:34.143Z,19.80
2024-05-09T20:34:08.139Z,20.10
2024-05-09T20:36:36.840Z,19.80
2024-05-09T20:39:07.875Z,19.80
2024-05-09T20:41:37.133Z,19.70
2024-05-09T20:44:08.683Z,19.60
2024-05-09T20:46:37.322Z,19.50
2024-05-09T20:49:11.413Z,19.40
2024-05-09T20:51:39.778Z,19.50
2024-05-09T20:54:13.353Z,19.80
2024-05-09T20:56:42.202Z,19.90
2024-05-09T20:59:13.370Z,20.00
2024-05-09T21:01:47.130Z,20.10
2024-05-09T21:04:22.486Z,20.20
2024-05-09T21:06:52.236Z,20.20
2024-05-09T21:09:26.311Z,20.30
2024-05-09T21:11:55.059Z,20.30
2024-05-09T21:14:26.573Z,20.30
2024-05-09T21:16:55.129Z,20.40
2024-05-09T21:19:29.158Z,20.30
2024-05-09T21:21:57.530Z,20.30
2024-05-09T21:24:28.252Z,20.30
2024-05-09T21:26:56.666Z,20.30
2024-05-09T21:29:27.782Z,20.00
2024-05-09T21:31:56.087Z,20.10
2024-05-09T21:34:30.214Z,20.10
2024-05-09T21:36:58.390Z,20.30
2024-05-09T21:39:29.622Z,20.30
2024-05-09T21:42:02.037Z,20.30
2024-05-09T21:44:33.483Z,20.20
2024-05-09T21:47:01.710Z,20.20
2024-05-09T21:49:35.664Z,20.30
2024-05-09T21:52:05.069Z,20.30
2024-05-09T21:54:35.820Z,20.20
2024-05-09T21:57:06.682Z,19.90
2024-05-09T21:59:38.041Z,20.00
2024-05-09T22:02:06.420Z,20.10
2024-05-09T22:04:41.004Z,20.00
2024-05-09T22:07:09.641Z,19.90
2024-05-09T22:09:45.630Z,19.70
2024-05-09T22:12:14.069Z,19.90
2024-05-09T22:14:44.947Z,19.80
2024-05-09T22:17:13.262Z,19.90
2024-05-09T22:19:48.443Z,19.90
2024-05-09T22:22:17.047Z,19.90
2024-05-09T22:24:48.133Z,20.10
2024-05-09T22:27:16.593Z,19.90
2024-05-09T22:29:47.386Z,19.80
2024-05-09T22:32:15.742Z,19.90
2024-05-09T22:34:49.545Z,19.90
2024-05-09T22:37:17.898Z,19.90
2024-05-09T22:39:48.715Z,19.80
2024-05-09T22:42:16.756Z,19.90
2024-05-09T22:44:47.526Z,19.80
2024-05-09T22:47:15.798Z,19.90
2024-05-09T22:49:49.362Z,19.90
2024-05-09T22:52:17.709Z,19.80
2024-05-09T22:54:48.552Z,19.80
2024-05-09T22:57:16.758Z,19.80
2024-05-09T22:59:47.557Z,19.90
2024-05-09T23:02:15.825Z,19.90
2024-05-09T23:04:49.508Z,20.00
2024-05-09T23:07:18.087Z,20.00
2024-05-09T23:09:49.246Z,19.90
2024-05-09T23:12:18.018Z,19.90
2024-05-09T23:14:49.165Z,20.00
2024-05-09T23:17:17.685Z,20.00
2024-05-09T23:19:51.529Z,19.80
2024-05-09T23:22:19.842Z,19.70
2024-05-09T23:24:50.947Z,19.60
2024-05-09T23:27:19.484Z,19.70
2024-05-09T23:29:50.869Z,19.70
2024-05-09T23:32:19.228Z,19.70
2024-05-09T23:34:52.925Z,19.70
2024-05-09T23:37:21.265Z,19.60
2024-05-09T23:39:52.222Z,19.80
2024-05-09T23:42:20.460Z,19.80
2024-05-09T23:44:53.190Z,19.50
2024-05-09T23:47:21.463Z,19.50
2024-05-09T23:49:54.966Z,19.50
2024-05-09T23:52:23.249Z,19.60
2024-05-09T23:54:54.084Z,19.40
2024-05-09T23:57:22.500Z,19.60
2024-05-09T23:59:53.592Z,19.60
